Hysham, Montana
Current Conditions -  °F | °C
As of 3:53 AM on Friday 19 Dec 2014 (Local Time) from KMLS Reporting Station
Clear Clear  
Wind Chill: 17°   Ceiling: Unl
Heat Index: 25°   Visibility: 10mi
Dew Point: 20°   Wind: 7mph
Humidity: 81%   Direction: 210°SSW
Pressure: 29.94"   Gusts: NA
Location:  46.29°N, 107.23°W
Report Text: KMLS 191053Z AUTO 21006KT 10SM CLR M04/M07 A2994 RMK AO2 SLP166 T10391067
Loading
Personal Weather Stations






























Interactive Weather Map New forecast layout! Learn more

10-Day Weather Forecast

Advertisements
Track Severe Weather on mobile